createdAt,value
2023-01-29T00:01:56.048Z,74.70
2023-01-29T00:04:23.188Z,74.50
2023-01-29T00:06:50.071Z,74.60
2023-01-29T00:09:16.827Z,74.60
2023-01-29T00:11:43.624Z,74.30
2023-01-29T00:14:10.431Z,74.50
2023-01-29T00:16:37.235Z,74.60
2023-01-29T00:19:04.059Z,74.70
2023-01-29T00:21:33.478Z,74.50
2023-01-29T00:24:00.301Z,74.40
2023-01-29T00:26:27.448Z,74.30
2023-01-29T00:28:54.611Z,74.10
2023-01-29T00:31:23.702Z,74.00
2023-01-29T00:33:50.932Z,74.20
2023-01-29T00:36:19.280Z,74.50
2023-01-29T00:38:54.511Z,74.30
2023-01-29T00:41:41.993Z,74.20
2023-01-29T00:44:27.468Z,74.00
2023-01-29T00:46:54.768Z,73.80
2023-01-29T00:49:22.080Z,74.10
2023-01-29T00:52:08.907Z,74.20
2023-01-29T00:54:36.008Z,74.30
2023-01-29T00:57:03.989Z,74.50
2023-01-29T00:59:31.902Z,74.60
2023-01-29T01:02:17.316Z,74.70
2023-01-29T01:04:44.089Z,74.50
2023-01-29T01:09:55.885Z,74.60
2023-01-29T01:12:22.918Z,74.60
2023-01-29T01:14:49.711Z,74.80
2023-01-29T01:17:16.632Z,74.70
2023-01-29T01:19:43.467Z,74.90
2023-01-29T01:22:10.419Z,74.80
2023-01-29T01:24:38.078Z,74.90
2023-01-29T01:27:05.721Z,74.90
2023-01-29T01:29:32.636Z,75.10
2023-01-29T01:31:59.880Z,74.90
2023-01-29T01:34:29.449Z,75.00
2023-01-29T01:36:56.404Z,75.00
2023-01-29T01:39:24.488Z,75.20
2023-01-29T01:41:55.898Z,75.00
2023-01-29T01:44:50.404Z,75.10
2023-01-29T01:47:24.710Z,75.20
2023-01-29T01:49:52.621Z,75.40
2023-01-29T01:52:20.827Z,75.00
2023-01-29T01:54:48.131Z,75.20
2023-01-29T01:57:24.917Z,75.00
2023-01-29T02:00:01.176Z,74.70
2023-01-29T02:02:46.693Z,74.90
2023-01-29T02:05:33.672Z,75.00
2023-01-29T02:08:19.027Z,75.10
2023-01-29T02:10:47.373Z,75.30
2023-01-29T02:13:18.673Z,75.50
2023-01-29T02:15:48.747Z,75.50
2023-01-29T02:18:17.772Z,75.50
2023-01-29T02:21:29.043Z,75.50
2023-01-29T02:24:27.074Z,75.70
2023-01-29T02:27:23.230Z,75.70
2023-01-29T02:30:12.264Z,75.80
2023-01-29T02:32:54.763Z,75.90
2023-01-29T02:35:34.569Z,75.90
2023-01-29T02:38:35.443Z,76.00
2023-01-29T02:41:15.940Z,75.70
2023-01-29T02:43:58.889Z,75.80
2023-01-29T02:46:36.116Z,75.70
2023-01-29T02:49:27.648Z,75.30
2023-01-29T02:52:03.727Z,75.40
2023-01-29T02:54:55.299Z,75.50
2023-01-29T02:57:29.132Z,75.40
2023-01-29T03:00:02.306Z,75.40
2023-01-29T03:02:43.840Z,75.30
2023-01-29T03:05:15.330Z,75.30
2023-01-29T03:07:58.562Z,75.10
2023-01-29T03:10:49.559Z,75.20
2023-01-29T03:13:29.172Z,74.80
2023-01-29T03:16:20.998Z,75.10
2023-01-29T03:19:23.253Z,75.10
2023-01-29T03:22:01.817Z,75.20
2023-01-29T03:25:21.828Z,74.90
2023-01-29T03:28:09.759Z,74.90
2023-01-29T03:31:18.850Z,74.60
2023-01-29T03:34:07.839Z,74.40
2023-01-29T03:36:45.190Z,74.10
2023-01-29T03:39:14.610Z,74.30
2023-01-29T03:42:23.753Z,74.30
2023-01-29T03:45:00.985Z,74.40
2023-01-29T03:47:51.432Z,74.30
2023-01-29T03:50:43.247Z,74.30
2023-01-29T03:53:29.947Z,74.20
2023-01-29T03:56:37.156Z,74.10
2023-01-29T03:59:29.859Z,74.10
2023-01-29T04:02:21.912Z,73.90
2023-01-29T04:04:51.947Z,73.50
2023-01-29T04:07:24.372Z,73.50
2023-01-29T04:10:02.349Z,73.60
2023-01-29T04:12:48.155Z,73.60
2023-01-29T04:15:17.490Z,73.60
2023-01-29T04:17:56.329Z,73.40
2023-01-29T04:20:36.466Z,73.60
2023-01-29T04:23:07.099Z,73.50
2023-01-29T04:25:45.547Z,73.40
2023-01-29T04:28:25.931Z,73.40
2023-01-29T04:31:00.652Z,73.60
2023-01-29T04:33:35.148Z,73.20
2023-01-29T04:36:10.924Z,73.30
2023-01-29T04:38:54.399Z,73.40
2023-01-29T04:41:28.936Z,73.60
2023-01-29T04:44:01.830Z,73.40
2023-01-29T04:46:47.620Z,73.50
2023-01-29T04:49:27.611Z,73.60
2023-01-29T04:52:15.588Z,73.50
2023-01-29T04:55:09.965Z,73.30
2023-01-29T04:57:46.190Z,73.10
2023-01-29T05:00:24.516Z,73.00
2023-01-29T05:02:51.460Z,73.20
2023-01-29T05:05:20.016Z,73.40
2023-01-29T05:07:48.194Z,73.40
2023-01-29T05:10:19.162Z,73.70
2023-01-29T05:12:51.309Z,73.70
2023-01-29T05:15:23.540Z,73.50
2023-01-29T05:17:50.363Z,73.30
2023-01-29T05:20:17.872Z,73.40
2023-01-29T05:22:45.536Z,73.30
2023-01-29T05:25:22.298Z,73.30
2023-01-29T05:28:16.243Z,73.20
2023-01-29T05:30:51.756Z,73.20
2023-01-29T05:33:29.916Z,73.20
2023-01-29T05:35:59.356Z,73.10
2023-01-29T05:38:26.352Z,72.10
2023-01-29T05:40:53.982Z,71.10
2023-01-29T05:43:23.272Z,71.70
2023-01-29T05:45:58.699Z,72.20
2023-01-29T05:48:28.728Z,72.50
2023-01-29T05:51:00.444Z,72.70
2023-01-29T05:53:29.166Z,72.80
2023-01-29T05:55:57.202Z,72.60
2023-01-29T05:58:24.603Z,72.40
2023-01-29T06:00:51.303Z,71.30
2023-01-29T06:03:18.135Z,70.40
2023-01-29T06:05:45.030Z,70.60
2023-01-29T06:08:12.098Z,70.10
2023-01-29T06:10:38.822Z,70.50
2023-01-29T06:13:05.558Z,70.50
2023-01-29T06:15:32.445Z,70.70
2023-01-29T06:17:59.254Z,71.00
2023-01-29T06:20:26.646Z,71.10
2023-01-29T06:22:53.384Z,69.90
2023-01-29T06:25:20.151Z,69.60
2023-01-29T06:27:50.967Z,69.60
2023-01-29T06:30:18.208Z,69.40
2023-01-29T06:32:45.052Z,69.50
2023-01-29T06:35:11.843Z,69.70
2023-01-29T06:37:38.720Z,70.20
2023-01-29T06:40:06.184Z,70.50
2023-01-29T06:42:35.467Z,70.80
2023-01-29T06:45:02.156Z,70.90
2023-01-29T06:47:29.027Z,71.00
2023-01-29T06:49:55.869Z,71.40
2023-01-29T06:52:22.671Z,71.70
2023-01-29T06:54:49.396Z,71.90
2023-01-29T06:57:16.298Z,72.00
2023-01-29T06:59:43.094Z,71.90
2023-01-29T07:02:10.595Z,71.90
2023-01-29T07:04:37.809Z,72.20
2023-01-29T07:07:05.222Z,72.20
2023-01-29T07:09:32.075Z,72.50
2023-01-29T07:11:58.824Z,72.10
2023-01-29T07:14:25.664Z,71.50
2023-01-29T07:16:52.597Z,71.50
2023-01-29T07:19:19.295Z,71.70
2023-01-29T07:21:46.276Z,71.10
2023-01-29T07:24:13.211Z,70.50
2023-01-29T07:26:39.925Z,70.60
2023-01-29T07:29:06.748Z,70.90
2023-01-29T07:31:33.983Z,71.10
2023-01-29T07:34:00.848Z,71.20
2023-01-29T07:36:28.317Z,71.50
2023-01-29T07:38:55.336Z,71.70
2023-01-29T07:41:22.224Z,71.90
2023-01-29T07:43:49.057Z,72.00
2023-01-29T07:46:15.940Z,72.40
2023-01-29T07:48:42.782Z,73.00
2023-01-29T07:51:09.584Z,72.90
2023-01-29T07:53:36.962Z,73.20
2023-01-29T07:56:03.955Z,73.90
2023-01-29T07:58:30.805Z,74.50
2023-01-29T08:00:57.702Z,74.80
2023-01-29T08:03:24.501Z,75.40
2023-01-29T08:05:51.275Z,75.70
2023-01-29T08:08:19.260Z,75.80
2023-01-29T08:10:46.104Z,75.80
2023-01-29T08:13:12.929Z,76.10
2023-01-29T08:15:44.120Z,76.10
2023-01-29T08:18:11.216Z,76.10
2023-01-29T08:20:38.340Z,76.20
2023-01-29T08:23:07.937Z,76.40
2023-01-29T08:25:36.059Z,76.30
2023-01-29T08:28:04.179Z,75.80
2023-01-29T08:30:33.506Z,75.10
2023-01-29T08:33:00.670Z,74.80
2023-01-29T08:35:27.729Z,74.80
2023-01-29T08:37:59.435Z,75.00
2023-01-29T08:40:27.891Z,75.00
2023-01-29T08:43:08.688Z,74.70
2023-01-29T08:45:38.132Z,74.50
2023-01-29T08:48:05.493Z,74.70
2023-01-29T08:50:34.750Z,74.80
2023-01-29T08:53:07.874Z,75.30
2023-01-29T08:55:39.604Z,75.40
2023-01-29T08:58:07.701Z,75.00
2023-01-29T09:00:35.536Z,75.10
2023-01-29T09:03:03.186Z,75.20
2023-01-29T09:05:29.931Z,74.40
2023-01-29T09:07:58.033Z,74.70
2023-01-29T09:10:26.099Z,74.80
2023-01-29T09:12:52.801Z,74.80
2023-01-29T09:15:20.052Z,74.70
2023-01-29T09:17:47.015Z,74.20
2023-01-29T09:20:14.199Z,73.90
2023-01-29T09:22:41.723Z,73.30
2023-01-29T09:25:09.540Z,72.60
2023-01-29T09:27:36.302Z,72.20
2023-01-29T09:30:04.669Z,72.60
2023-01-29T09:33:01.950Z,73.30
2023-01-29T09:35:19.135Z,73.30
2023-01-29T09:37:49.923Z,73.50
2023-01-29T09:40:27.091Z,72.70
2023-01-29T09:43:07.213Z,72.00
2023-01-29T09:45:35.317Z,72.20
2023-01-29T09:48:05.642Z,71.60
2023-01-29T09:50:40.072Z,71.50
2023-01-29T09:53:10.781Z,71.50
2023-01-29T09:55:41.315Z,71.10
2023-01-29T09:58:25.292Z,71.50
2023-01-29T10:01:07.237Z,70.70
2023-01-29T10:03:55.803Z,70.20
2023-01-29T10:06:45.937Z,70.30
2023-01-29T10:09:57.430Z,69.80
2023-01-29T10:12:44.756Z,70.10
2023-01-29T10:15:22.904Z,69.80
2023-01-29T10:18:09.861Z,69.80
2023-01-29T10:20:53.358Z,69.50
2023-01-29T10:23:38.312Z,69.50
2023-01-29T10:26:05.023Z,68.60
2023-01-29T10:28:38.110Z,68.90
2023-01-29T10:31:10.074Z,68.20
2023-01-29T10:33:49.227Z,67.60
2023-01-29T10:36:34.191Z,67.80
2023-01-29T10:39:00.926Z,67.90
2023-01-29T10:42:09.592Z,67.90
2023-01-29T10:45:08.525Z,68.40
2023-01-29T10:47:57.225Z,67.90
2023-01-29T10:50:52.205Z,68.20
2023-01-29T10:53:41.904Z,67.70
2023-01-29T10:56:23.439Z,67.50
2023-01-29T10:59:02.807Z,67.00
2023-01-29T11:01:29.684Z,66.90
2023-01-29T11:04:00.754Z,67.00
2023-01-29T11:06:35.498Z,67.10
2023-01-29T11:09:24.948Z,67.20
2023-01-29T11:12:05.763Z,67.20
2023-01-29T11:14:55.445Z,67.70
2023-01-29T11:17:24.608Z,68.20
2023-01-29T11:19:53.441Z,67.80
2023-01-29T11:22:25.113Z,67.00
2023-01-29T11:25:10.402Z,67.20
2023-01-29T11:27:44.770Z,67.30
2023-01-29T11:30:30.050Z,67.70
2023-01-29T11:33:11.928Z,67.20
2023-01-29T11:35:38.761Z,66.90
2023-01-29T11:38:16.947Z,66.00
2023-01-29T11:40:44.544Z,65.80
2023-01-29T11:43:30.204Z,65.70
2023-01-29T11:46:17.304Z,65.80
2023-01-29T11:48:50.114Z,65.60
2023-01-29T11:51:38.087Z,65.80
2023-01-29T11:54:05.683Z,65.90
2023-01-29T11:56:41.321Z,65.80
2023-01-29T11:59:37.642Z,66.20
2023-01-29T12:02:16.508Z,66.30
2023-01-29T12:04:43.408Z,66.50
2023-01-29T12:07:16.513Z,66.40
2023-01-29T12:09:51.880Z,66.70
2023-01-29T12:12:30.881Z,66.90
2023-01-29T12:15:26.478Z,67.00
2023-01-29T12:18:25.844Z,67.20
2023-01-29T12:21:03.160Z,67.10
2023-01-29T12:23:57.019Z,67.50
2023-01-29T12:26:43.084Z,67.80
2023-01-29T12:29:25.938Z,67.90
2023-01-29T12:32:02.989Z,68.00
2023-01-29T12:35:23.822Z,67.60
2023-01-29T12:38:09.857Z,67.30
2023-01-29T12:41:23.424Z,67.40
2023-01-29T12:43:56.058Z,67.20
2023-01-29T12:46:27.926Z,67.20
2023-01-29T12:48:57.772Z,67.50
2023-01-29T12:51:34.468Z,67.70
2023-01-29T12:54:14.114Z,68.00
2023-01-29T12:56:55.760Z,67.10
2023-01-29T12:59:25.286Z,67.20
2023-01-29T13:01:59.593Z,67.10
2023-01-29T13:04:41.154Z,67.50
2023-01-29T13:07:24.688Z,66.90
2023-01-29T13:09:57.164Z,67.10
2023-01-29T13:12:24.564Z,67.50
2023-01-29T13:15:20.655Z,67.90
2023-01-29T13:17:52.891Z,67.70
2023-01-29T13:20:25.624Z,68.20
2023-01-29T13:22:56.357Z,68.10
2023-01-29T13:25:23.444Z,68.00
2023-01-29T13:27:50.790Z,68.10
2023-01-29T13:30:29.600Z,68.30
2023-01-29T13:33:09.134Z,68.40
2023-01-29T13:35:42.405Z,68.60
2023-01-29T13:38:28.346Z,68.60
2023-01-29T13:41:06.393Z,68.70
2023-01-29T13:43:37.607Z,68.90
2023-01-29T13:46:18.338Z,69.20
2023-01-29T13:48:47.928Z,69.20
2023-01-29T13:51:20.878Z,69.10
2023-01-29T13:54:05.822Z,69.20
2023-01-29T13:56:43.797Z,69.20
2023-01-29T13:59:44.745Z,69.20
2023-01-29T14:02:23.264Z,69.20
2023-01-29T14:04:50.087Z,69.30
2023-01-29T14:07:45.496Z,69.40
2023-01-29T14:10:21.841Z,69.60
2023-01-29T14:13:23.765Z,69.70
2023-01-29T14:15:59.602Z,69.60
2023-01-29T14:18:28.305Z,69.50
2023-01-29T14:21:05.627Z,69.60
2023-01-29T14:23:46.525Z,69.80
2023-01-29T14:26:45.132Z,69.60
2023-01-29T14:29:37.999Z,69.70
2023-01-29T14:32:07.423Z,69.80
2023-01-29T14:34:35.911Z,70.10
2023-01-29T14:37:19.308Z,70.40
2023-01-29T14:39:56.178Z,70.50
2023-01-29T14:42:35.638Z,70.40
2023-01-29T14:45:11.407Z,70.70
2023-01-29T14:47:38.156Z,70.40
2023-01-29T14:50:26.722Z,70.70
2023-01-29T14:52:54.529Z,70.50
2023-01-29T14:55:31.851Z,70.60
2023-01-29T14:57:59.125Z,71.10
2023-01-29T15:00:30.150Z,71.50
2023-01-29T15:03:01.901Z,71.60
2023-01-29T15:05:37.041Z,71.00
2023-01-29T15:08:12.985Z,71.60
2023-01-29T15:10:48.262Z,71.40
2023-01-29T15:13:24.530Z,71.30
2023-01-29T15:15:56.874Z,71.60
2023-01-29T15:18:42.803Z,71.90
2023-01-29T15:21:14.810Z,72.10
2023-01-29T15:23:43.224Z,72.60
2023-01-29T15:26:16.033Z,72.90
2023-01-29T15:28:47.112Z,73.00
2023-01-29T15:31:18.381Z,73.30
2023-01-29T15:33:47.804Z,73.80
2023-01-29T15:36:26.853Z,74.80
2023-01-29T15:39:19.616Z,74.70
2023-01-29T15:41:47.005Z,75.30
2023-01-29T15:44:22.377Z,75.70
2023-01-29T15:46:54.340Z,75.90
2023-01-29T15:49:30.868Z,76.00
2023-01-29T15:52:04.528Z,75.90
2023-01-29T15:54:34.743Z,76.20
2023-01-29T15:57:02.729Z,76.20
2023-01-29T15:59:34.607Z,76.20
2023-01-29T16:02:29.564Z,76.20
2023-01-29T16:04:56.485Z,76.50
2023-01-29T16:07:23.417Z,76.60
2023-01-29T16:09:52.407Z,76.80
2023-01-29T16:12:19.804Z,76.80
2023-01-29T16:14:49.393Z,76.40
2023-01-29T16:17:30.578Z,76.50
2023-01-29T16:20:02.107Z,76.70
2023-01-29T16:22:34.927Z,76.80
2023-01-29T16:25:06.443Z,76.50
2023-01-29T16:27:34.750Z,76.90
2023-01-29T16:30:02.109Z,76.60
2023-01-29T16:32:30.492Z,76.70
2023-01-29T16:35:00.565Z,76.60
2023-01-29T16:37:31.013Z,76.60
2023-01-29T16:39:58.020Z,76.80
2023-01-29T16:42:30.256Z,76.80
2023-01-29T16:45:01.978Z,77.10
2023-01-29T16:47:43.860Z,76.40
2023-01-29T16:50:40.475Z,76.30
2023-01-29T16:53:19.656Z,76.50
2023-01-29T16:55:49.587Z,76.10
2023-01-29T16:58:30.354Z,76.30
2023-01-29T17:01:09.130Z,76.50
2023-01-29T17:03:37.172Z,76.40
2023-01-29T17:06:38.003Z,76.20
2023-01-29T17:09:05.774Z,76.40
2023-01-29T17:11:39.872Z,75.70
2023-01-29T17:14:08.076Z,75.50
2023-01-29T17:16:37.515Z,75.70
2023-01-29T17:19:18.376Z,75.70
2023-01-29T17:21:45.824Z,76.10
2023-01-29T17:24:12.824Z,75.50
2023-01-29T17:26:39.950Z,75.30
2023-01-29T17:29:08.639Z,75.30
2023-01-29T17:31:35.452Z,75.60
2023-01-29T17:34:02.209Z,74.80
2023-01-29T17:36:28.981Z,74.50
2023-01-29T17:38:55.682Z,74.80
2023-01-29T17:41:28.188Z,74.40
2023-01-29T17:43:55.049Z,73.70
2023-01-29T17:46:22.633Z,73.30
2023-01-29T17:48:49.497Z,73.80
2023-01-29T17:51:18.142Z,73.80
2023-01-29T17:53:46.977Z,73.40
2023-01-29T17:56:16.935Z,72.90
2023-01-29T17:58:44.038Z,73.10
2023-01-29T18:01:10.790Z,73.00
2023-01-29T18:03:37.603Z,73.10
2023-01-29T18:06:07.913Z,73.70
2023-01-29T18:08:36.354Z,73.50
2023-01-29T18:11:03.173Z,73.90
2023-01-29T18:13:30.159Z,73.40
2023-01-29T18:15:56.971Z,73.50
2023-01-29T18:18:24.568Z,73.80
2023-01-29T18:20:51.603Z,73.50
2023-01-29T18:23:18.364Z,73.80
2023-01-29T18:25:45.263Z,73.50
2023-01-29T18:28:19.587Z,74.00
2023-01-29T18:30:47.506Z,74.40
2023-01-29T18:33:15.686Z,75.30
2023-01-29T18:35:48.214Z,76.10
2023-01-29T18:38:15.364Z,76.00
2023-01-29T18:40:42.190Z,76.60
2023-01-29T18:43:09.197Z,77.10
2023-01-29T18:45:36.079Z,77.70
2023-01-29T18:48:04.316Z,77.90
2023-01-29T18:50:31.243Z,77.60
2023-01-29T18:52:57.967Z,78.50
2023-01-29T18:55:26.491Z,78.00
2023-01-29T18:58:28.820Z,78.30
2023-01-29T19:00:41.101Z,78.70
2023-01-29T19:03:07.861Z,78.60
2023-01-29T19:05:34.755Z,78.70
2023-01-29T19:08:01.849Z,78.90
2023-01-29T19:10:28.826Z,78.60
2023-01-29T19:12:55.504Z,79.00
2023-01-29T19:15:22.890Z,79.30
2023-01-29T19:17:53.210Z,78.60
2023-01-29T19:20:20.407Z,78.40
2023-01-29T19:22:47.148Z,78.30
2023-01-29T19:25:14.048Z,78.80
2023-01-29T19:27:40.910Z,78.60
2023-01-29T19:30:08.539Z,78.70
2023-01-29T19:32:35.447Z,78.50
2023-01-29T19:35:02.261Z,78.40
2023-01-29T19:37:30.813Z,78.60
2023-01-29T19:39:57.821Z,78.80
2023-01-29T19:42:24.640Z,78.80
2023-01-29T19:44:52.271Z,78.50
2023-01-29T19:47:19.187Z,78.60
2023-01-29T19:49:46.736Z,78.60
2023-01-29T19:52:49.848Z,79.00
2023-01-29T19:55:18.044Z,78.80
2023-01-29T19:57:45.155Z,78.50
2023-01-29T20:00:14.755Z,78.50
2023-01-29T20:02:41.469Z,78.70
2023-01-29T20:05:11.174Z,78.70
2023-01-29T20:07:39.790Z,78.60
2023-01-29T20:10:09.642Z,78.10
2023-01-29T20:12:36.881Z,78.50
2023-01-29T20:15:04.104Z,78.70
2023-01-29T20:17:30.944Z,78.80
2023-01-29T20:19:57.632Z,79.40
2023-01-29T20:22:26.630Z,79.50
2023-01-29T20:24:53.772Z,79.90
2023-01-29T20:27:20.587Z,79.70
2023-01-29T20:29:47.351Z,79.70
2023-01-29T20:32:14.576Z,79.50
2023-01-29T20:34:41.509Z,78.70
2023-01-29T20:37:08.182Z,79.00
2023-01-29T20:39:34.927Z,78.70
2023-01-29T20:42:01.666Z,78.90
2023-01-29T20:44:28.635Z,79.10
2023-01-29T20:46:56.253Z,78.70
2023-01-29T20:49:23.038Z,78.90
2023-01-29T20:51:50.001Z,78.70
2023-01-29T20:54:16.789Z,78.60
2023-01-29T20:56:46.139Z,78.00
2023-01-29T20:59:13.992Z,77.70
2023-01-29T21:01:41.547Z,77.10
2023-01-29T21:04:08.198Z,77.00
2023-01-29T21:06:35.094Z,76.90
2023-01-29T21:09:01.900Z,76.90
2023-01-29T21:11:28.713Z,76.10
2023-01-29T21:13:57.721Z,76.20
2023-01-29T21:16:26.098Z,76.40
2023-01-29T21:18:56.719Z,75.90
2023-01-29T21:21:23.833Z,75.90
2023-01-29T21:23:50.523Z,76.30
2023-01-29T21:26:18.748Z,75.80
2023-01-29T21:28:46.008Z,75.60
2023-01-29T21:31:17.560Z,75.70
2023-01-29T21:33:44.604Z,75.70
2023-01-29T21:36:11.771Z,75.70
2023-01-29T21:38:39.194Z,76.10
2023-01-29T21:41:08.751Z,75.90
2023-01-29T21:43:35.999Z,76.20
2023-01-29T21:46:05.042Z,76.00
2023-01-29T21:48:32.423Z,75.90
2023-01-29T21:50:59.120Z,76.10
2023-01-29T21:53:25.943Z,76.00
2023-01-29T21:55:52.818Z,76.20
2023-01-29T21:58:20.450Z,76.30
2023-01-29T22:00:48.697Z,76.30
2023-01-29T22:03:15.835Z,76.40
2023-01-29T22:05:42.788Z,76.60
2023-01-29T22:08:09.863Z,76.60
2023-01-29T22:10:36.959Z,76.50
2023-01-29T22:13:04.047Z,76.20
2023-01-29T22:15:30.771Z,76.00
2023-01-29T22:17:57.614Z,76.10
2023-01-29T22:20:29.957Z,76.00
2023-01-29T22:22:59.319Z,76.20
2023-01-29T22:25:26.863Z,76.60
2023-01-29T22:27:53.813Z,76.60
2023-01-29T22:30:21.668Z,76.40
2023-01-29T22:32:48.634Z,76.50
2023-01-29T22:35:15.487Z,76.50
2023-01-29T22:37:42.500Z,76.50
2023-01-29T22:40:10.038Z,76.70
2023-01-29T22:42:36.737Z,76.70
2023-01-29T22:45:03.585Z,76.50
2023-01-29T22:47:32.792Z,76.50
2023-01-29T22:49:59.567Z,76.50
2023-01-29T22:52:27.913Z,76.50
2023-01-29T22:54:54.704Z,76.70
2023-01-29T22:57:21.488Z,77.00
2023-01-29T22:59:48.239Z,77.20
2023-01-29T23:02:15.001Z,77.10
2023-01-29T23:04:41.876Z,76.90
2023-01-29T23:07:08.674Z,76.60
2023-01-29T23:09:35.438Z,76.60
2023-01-29T23:12:02.156Z,77.50
2023-01-29T23:14:28.864Z,77.40
2023-01-29T23:16:55.539Z,77.30
2023-01-29T23:19:22.516Z,77.60
2023-01-29T23:21:49.390Z,77.70
2023-01-29T23:24:16.445Z,77.80
2023-01-29T23:27:02.034Z,77.80
2023-01-29T23:29:28.836Z,77.80
2023-01-29T23:31:55.587Z,77.80
2023-01-29T23:34:22.374Z,77.80
2023-01-29T23:36:49.194Z,78.30
2023-01-29T23:39:16.355Z,78.40
2023-01-29T23:41:43.697Z,78.70
2023-01-29T23:44:10.575Z,79.10
2023-01-29T23:46:37.434Z,79.00
2023-01-29T23:49:04.246Z,78.70
2023-01-29T23:51:31.180Z,77.90
2023-01-29T23:53:58.291Z,77.60
2023-01-29T23:56:25.442Z,77.50
2023-01-29T23:58:56.156Z,77.80
